createdAt,value
2018-11-26T00:00:36.011Z,91.23
2018-11-26T00:03:07.139Z,90.88
2018-11-26T00:05:35.165Z,90.95
2018-11-26T00:08:03.313Z,89.57
2018-11-26T00:10:42.244Z,89.77
2018-11-26T00:13:10.246Z,90.18
2018-11-26T00:15:38.572Z,90.05
2018-11-26T00:18:06.744Z,89.88
2018-11-26T00:20:34.851Z,90.24
2018-11-26T00:23:03.536Z,89.62
2018-11-26T00:25:31.538Z,89.88
2018-11-26T00:27:59.675Z,90.90
2018-11-26T00:30:27.782Z,90.98
2018-11-26T00:32:56.372Z,92.15
2018-11-26T00:35:24.328Z,91.20
2018-11-26T00:37:52.388Z,90.93
2018-11-26T00:40:20.314Z,90.81
2018-11-26T00:45:25.303Z,90.33
2018-11-26T00:47:53.328Z,91.24
2018-11-26T00:50:21.343Z,90.45
2018-11-26T00:52:49.905Z,88.73
2018-11-26T00:55:18.008Z,88.51
2018-11-26T00:57:46.054Z,89.88
2018-11-26T01:00:14.251Z,91.54
2018-11-26T01:02:43.588Z,92.67
2018-11-26T01:05:22.350Z,93.77
2018-11-26T01:07:50.275Z,94.17
2018-11-26T01:10:18.334Z,94.60
2018-11-26T01:12:46.514Z,95.47
2018-11-26T01:15:14.674Z,95.18
2018-11-26T01:17:42.898Z,95.49
2018-11-26T01:20:10.986Z,95.82
2018-11-26T01:22:38.910Z,94.02
2018-11-26T01:25:06.896Z,92.49
2018-11-26T01:27:35.019Z,91.89
2018-11-26T01:30:03.802Z,91.52
2018-11-26T01:32:31.845Z,91.96
2018-11-26T01:35:01.357Z,92.10
2018-11-26T01:37:30.178Z,89.27
2018-11-26T01:39:58.217Z,90.03
2018-11-26T01:42:26.227Z,90.22
2018-11-26T01:44:54.180Z,90.43
2018-11-26T01:47:22.286Z,91.70
2018-11-26T01:49:50.245Z,91.29
2018-11-26T01:52:18.249Z,91.81
2018-11-26T01:54:46.297Z,91.73
2018-11-26T01:57:14.229Z,91.99
2018-11-26T01:59:42.153Z,92.82
2018-11-26T02:02:10.147Z,92.46
2018-11-26T02:04:39.102Z,89.11
2018-11-26T02:07:07.221Z,89.36
2018-11-26T02:09:35.375Z,88.22
2018-11-26T02:12:04.673Z,87.72
2018-11-26T02:14:32.733Z,88.47
2018-11-26T02:17:02.091Z,88.11
2018-11-26T02:19:30.919Z,88.97
2018-11-26T02:22:00.462Z,89.85
2018-11-26T02:24:28.604Z,89.95
2018-11-26T02:26:56.591Z,89.17
2018-11-26T02:29:24.733Z,89.69
2018-11-26T02:31:53.047Z,89.41
2018-11-26T02:34:21.065Z,89.16
2018-11-26T02:36:49.123Z,89.82
2018-11-26T02:39:17.647Z,90.38
2018-11-26T02:41:45.687Z,90.72
2018-11-26T02:44:13.731Z,92.20
2018-11-26T02:46:41.668Z,91.40
2018-11-26T02:49:09.790Z,91.62
2018-11-26T02:51:38.446Z,92.36
2018-11-26T02:54:06.422Z,93.04
2018-11-26T02:56:34.567Z,93.04
2018-11-26T02:59:02.501Z,92.27
2018-11-26T03:01:30.534Z,92.69
2018-11-26T03:03:58.572Z,91.53
2018-11-26T03:06:27.290Z,90.54
2018-11-26T03:08:55.391Z,90.45
2018-11-26T03:11:23.342Z,89.56
2018-11-26T03:13:51.314Z,90.01
2018-11-26T03:16:19.265Z,90.12
2018-11-26T03:18:47.479Z,89.85
2018-11-26T03:21:16.216Z,89.57
2018-11-26T03:23:44.101Z,89.62
2018-11-26T03:26:12.150Z,88.36
2018-11-26T03:28:40.070Z,88.99
2018-11-26T03:31:08.245Z,89.07
2018-11-26T03:33:36.479Z,89.26
2018-11-26T03:36:04.446Z,90.14
2018-11-26T03:38:49.927Z,89.83
2018-11-26T03:41:18.004Z,90.12
2018-11-26T03:43:46.198Z,88.68
2018-11-26T03:46:14.300Z,89.12
2018-11-26T03:48:42.281Z,89.67
2018-11-26T03:51:10.380Z,89.42
2018-11-26T03:53:38.368Z,89.33
2018-11-26T03:56:06.883Z,88.70
2018-11-26T03:58:34.898Z,87.84
2018-11-26T04:01:02.863Z,87.36
2018-11-26T04:03:30.763Z,88.26
2018-11-26T04:05:58.785Z,88.11
2018-11-26T04:08:26.806Z,88.47
2018-11-26T04:10:55.610Z,88.57
2018-11-26T04:13:23.792Z,88.28
2018-11-26T04:15:52.085Z,86.94
2018-11-26T04:18:21.308Z,86.09
2018-11-26T04:20:50.612Z,87.95
2018-11-26T04:23:18.808Z,88.63
2018-11-26T04:25:47.802Z,89.85
2018-11-26T04:28:16.461Z,91.26
2018-11-26T04:30:47.830Z,92.02
2018-11-26T04:33:16.050Z,91.70
2018-11-26T04:35:44.034Z,91.41
2018-11-26T04:38:12.246Z,91.39
2018-11-26T04:40:40.256Z,90.96
2018-11-26T04:43:08.176Z,91.49
2018-11-26T04:45:36.088Z,92.86
2018-11-26T04:48:04.042Z,92.79
2018-11-26T04:50:31.981Z,93.28
2018-11-26T04:52:59.984Z,93.39
2018-11-26T04:55:27.877Z,93.76
2018-11-26T04:57:55.856Z,93.21
2018-11-26T05:00:23.844Z,92.37
2018-11-26T05:02:51.776Z,91.29
2018-11-26T05:05:19.764Z,91.33
2018-11-26T05:07:47.854Z,91.14
2018-11-26T05:10:15.854Z,91.12
2018-11-26T05:12:43.872Z,92.09
2018-11-26T05:15:12.576Z,92.24
2018-11-26T05:17:40.744Z,90.74
2018-11-26T05:20:14.269Z,91.49
2018-11-26T05:22:43.428Z,91.64
2018-11-26T05:25:11.714Z,90.79
2018-11-26T05:27:39.640Z,91.93
2018-11-26T05:30:12.669Z,92.20
2018-11-26T05:32:40.883Z,91.03
2018-11-26T05:35:10.128Z,89.30
2018-11-26T05:37:38.128Z,89.40
2018-11-26T05:40:11.759Z,89.85
2018-11-26T05:42:42.193Z,90.54
2018-11-26T05:45:12.559Z,90.82
2018-11-26T05:47:41.614Z,88.62
2018-11-26T05:50:10.955Z,89.87
2018-11-26T05:52:40.046Z,88.20
2018-11-26T05:55:09.798Z,90.17
2018-11-26T05:57:39.722Z,90.16
2018-11-26T06:00:21.739Z,89.62
2018-11-26T06:02:50.893Z,89.77
2018-11-26T06:05:19.624Z,89.77
2018-11-26T06:07:48.868Z,90.33
2018-11-26T06:12:53.706Z,89.35
2018-11-26T06:15:21.668Z,90.18
2018-11-26T06:17:49.657Z,89.87
2018-11-26T06:20:17.584Z,90.42
2018-11-26T06:22:46.370Z,89.99
2018-11-26T06:25:15.704Z,90.79
2018-11-26T06:27:44.089Z,91.31
2018-11-26T06:30:17.072Z,90.17
2018-11-26T06:32:47.505Z,90.07
2018-11-26T06:35:24.106Z,88.63
2018-11-26T06:37:54.320Z,87.71
2018-11-26T06:40:26.241Z,87.70
2018-11-26T06:42:56.463Z,86.94
2018-11-26T06:45:24.498Z,84.48
2018-11-26T06:47:53.470Z,85.44
2018-11-26T06:50:22.102Z,83.10
2018-11-26T06:52:50.954Z,85.14
2018-11-26T06:55:20.308Z,84.16
2018-11-26T06:57:48.554Z,84.90
2018-11-26T07:00:18.088Z,84.15
2018-11-26T07:02:46.110Z,84.59
2018-11-26T07:05:16.410Z,82.86
2018-11-26T07:07:48.566Z,83.73
2018-11-26T07:10:18.684Z,85.08
2018-11-26T07:12:46.821Z,86.03
2018-11-26T07:15:17.886Z,85.45
2018-11-26T07:17:45.941Z,85.13
2018-11-26T07:20:15.995Z,84.79
2018-11-26T07:22:44.160Z,84.86
2018-11-26T07:25:14.067Z,86.42
2018-11-26T07:27:45.059Z,86.70
2018-11-26T07:30:20.864Z,87.22
2018-11-26T07:32:48.965Z,87.91
2018-11-26T07:35:17.188Z,87.41
2018-11-26T07:37:45.340Z,86.16
2018-11-26T07:41:04.055Z,85.59
2018-11-26T07:43:33.345Z,84.30
2018-11-26T07:46:01.490Z,82.90
2018-11-26T07:48:32.550Z,82.11
2018-11-26T07:51:00.534Z,82.78
2018-11-26T07:53:29.223Z,84.07
2018-11-26T07:55:57.199Z,84.33
2018-11-26T07:58:25.394Z,84.11
2018-11-26T08:00:54.682Z,83.75
2018-11-26T08:03:22.845Z,83.36
2018-11-26T08:05:52.442Z,83.51
2018-11-26T08:08:22.200Z,83.50
2018-11-26T08:10:50.874Z,83.53
2018-11-26T08:13:18.893Z,83.35
2018-11-26T08:15:47.074Z,82.65
2018-11-26T08:18:15.579Z,83.21
2018-11-26T08:20:43.486Z,83.45
2018-11-26T08:23:11.577Z,84.40
2018-11-26T08:25:39.593Z,84.28
2018-11-26T08:28:07.585Z,84.53
2018-11-26T08:30:35.501Z,84.87
2018-11-26T08:33:05.390Z,84.11
2018-11-26T08:35:33.578Z,84.82
2018-11-26T08:38:13.242Z,84.74
2018-11-26T08:40:42.425Z,84.86
2018-11-26T08:43:15.945Z,84.07
2018-11-26T08:49:14.036Z,84.01
2018-11-26T08:51:42.926Z,84.49
2018-11-26T08:54:10.910Z,84.48
2018-11-26T08:56:38.854Z,85.24
2018-11-26T08:59:07.066Z,85.84
2018-11-26T09:01:39.558Z,85.59
2018-11-26T09:04:09.758Z,84.45
2018-11-26T09:06:39.626Z,84.91
2018-11-26T09:09:10.089Z,85.17
2018-11-26T09:11:38.268Z,84.56
2018-11-26T09:14:06.682Z,84.01
2018-11-26T09:16:36.255Z,84.58
2018-11-26T09:19:04.843Z,85.06
2018-11-26T09:21:33.020Z,85.11
2018-11-26T09:24:01.974Z,84.25
2018-11-26T09:26:30.007Z,83.00
2018-11-26T09:28:58.053Z,83.70
2018-11-26T09:31:26.361Z,83.32
2018-11-26T09:33:58.325Z,83.77
2018-11-26T09:36:26.492Z,83.96
2018-11-26T09:38:54.616Z,84.38
2018-11-26T09:41:22.605Z,84.39
2018-11-26T09:43:50.707Z,83.67
2018-11-26T09:46:19.235Z,84.00
2018-11-26T09:48:47.299Z,84.41
2018-11-26T09:51:15.458Z,83.38
2018-11-26T09:53:43.551Z,82.56
2018-11-26T09:56:11.530Z,83.32
2018-11-26T09:58:39.495Z,83.05
2018-11-26T10:01:07.482Z,83.26
2018-11-26T10:03:35.707Z,83.03
2018-11-26T10:06:04.875Z,83.11
2018-11-26T10:08:33.076Z,83.31
2018-11-26T10:11:04.083Z,82.89
2018-11-26T10:13:32.323Z,80.96
2018-11-26T10:16:00.653Z,81.59
2018-11-26T10:18:28.648Z,81.76
2018-11-26T10:20:56.765Z,81.89
2018-11-26T10:23:24.903Z,81.66
2018-11-26T10:25:53.161Z,80.68
2018-11-26T10:28:21.258Z,80.81
2018-11-26T10:30:49.474Z,80.57
2018-11-26T10:33:17.536Z,80.88
2018-11-26T10:35:46.425Z,80.74
2018-11-26T10:38:16.562Z,80.66
2018-11-26T10:40:45.618Z,80.53
2018-11-26T10:43:13.566Z,81.32
2018-11-26T10:45:44.866Z,80.32
2018-11-26T10:48:16.749Z,79.42
2018-11-26T10:50:46.747Z,79.39
2018-11-26T10:53:15.575Z,79.35
2018-11-26T10:55:44.746Z,79.42
2018-11-26T10:58:14.135Z,78.75
2018-11-26T11:00:47.938Z,77.58
2018-11-26T11:03:17.723Z,77.18
2018-11-26T11:05:45.900Z,76.30
2018-11-26T11:08:17.768Z,77.45
2018-11-26T11:10:46.092Z,77.09
2018-11-26T11:13:14.243Z,76.37
2018-11-26T11:15:55.297Z,77.12
2018-11-26T11:18:28.473Z,77.45
2018-11-26T11:20:57.578Z,77.32
2018-11-26T11:23:25.627Z,76.15
2018-11-26T11:26:05.760Z,76.89
2018-11-26T11:28:34.229Z,76.03
2018-11-26T11:31:02.236Z,75.89
2018-11-26T11:33:30.231Z,75.56
2018-11-26T11:35:58.201Z,75.36
2018-11-26T11:38:26.242Z,75.27
2018-11-26T11:40:54.413Z,74.20
2018-11-26T11:43:22.518Z,73.90
2018-11-26T11:45:50.658Z,75.08
2018-11-26T11:48:18.629Z,74.88
2018-11-26T11:50:46.792Z,75.50
2018-11-26T11:53:15.033Z,75.56
2018-11-26T11:55:43.136Z,75.84
2018-11-26T11:58:11.226Z,76.16
2018-11-26T12:00:40.400Z,76.40
2018-11-26T12:03:11.644Z,75.93
2018-11-26T12:05:39.840Z,76.67
2018-11-26T12:08:08.638Z,77.70
2018-11-26T12:10:36.852Z,77.81
2018-11-26T12:13:05.701Z,77.42
2018-11-26T12:15:34.712Z,77.71
2018-11-26T12:18:02.702Z,77.11
2018-11-26T12:20:30.727Z,76.36
2018-11-26T12:22:59.213Z,77.00
2018-11-26T12:25:27.497Z,75.43
2018-11-26T12:27:57.549Z,75.77
2018-11-26T12:30:26.789Z,76.50
2018-11-26T12:32:54.799Z,77.26
2018-11-26T12:35:23.034Z,77.56
2018-11-26T12:37:51.388Z,77.31
2018-11-26T12:40:27.182Z,77.66
2018-11-26T12:42:56.276Z,76.21
2018-11-26T12:45:27.089Z,74.58
2018-11-26T12:48:01.121Z,75.80
2018-11-26T12:50:30.223Z,75.14
2018-11-26T12:52:58.646Z,75.13
2018-11-26T12:55:26.840Z,73.28
2018-11-26T12:57:55.816Z,74.51
2018-11-26T13:00:27.015Z,75.01
2018-11-26T13:03:12.046Z,74.52
2018-11-26T13:05:40.095Z,74.36
2018-11-26T13:08:08.597Z,73.53
2018-11-26T13:10:37.724Z,74.41
2018-11-26T13:13:06.986Z,75.15
2018-11-26T13:15:35.968Z,74.76
2018-11-26T13:18:04.768Z,74.20
2018-11-26T13:20:33.751Z,73.04
2018-11-26T13:23:01.987Z,73.17
2018-11-26T13:25:33.411Z,74.13
2018-11-26T13:28:03.166Z,75.02
2018-11-26T13:30:32.435Z,75.12
2018-11-26T13:33:01.892Z,74.40
2018-11-26T13:35:31.779Z,74.81
2018-11-26T13:37:59.902Z,74.88
2018-11-26T13:40:28.969Z,74.92
2018-11-26T13:42:56.921Z,74.34
2018-11-26T13:45:27.194Z,73.92
2018-11-26T13:47:55.300Z,74.37
2018-11-26T13:50:28.789Z,73.87
2018-11-26T13:52:57.184Z,73.45
2018-11-26T13:55:26.078Z,73.57
2018-11-26T13:57:55.496Z,72.45
2018-11-26T14:00:23.497Z,73.06
2018-11-26T14:02:51.580Z,73.98
2018-11-26T14:05:22.670Z,74.42
2018-11-26T14:10:38.448Z,73.76
2018-11-26T14:13:46.046Z,73.27
2018-11-26T14:16:14.175Z,73.39
2018-11-26T14:18:43.776Z,73.10
2018-11-26T14:21:14.015Z,74.15
2018-11-26T14:23:42.186Z,74.34
2018-11-26T14:26:10.719Z,74.50
2018-11-26T14:28:38.676Z,74.69
2018-11-26T14:31:06.792Z,74.79
2018-11-26T14:33:34.822Z,73.22
2018-11-26T14:36:03.605Z,73.66
2018-11-26T14:38:50.611Z,74.34
2018-11-26T14:41:22.900Z,74.62
2018-11-26T14:43:50.838Z,73.29
2018-11-26T14:46:18.883Z,73.69
2018-11-26T14:48:47.769Z,75.03
2018-11-26T14:51:17.922Z,76.35
2018-11-26T14:53:46.043Z,75.36
2018-11-26T14:56:14.344Z,75.91
2018-11-26T14:58:42.479Z,76.24
2018-11-26T15:01:10.719Z,75.53
2018-11-26T15:03:40.165Z,75.55
2018-11-26T15:06:08.128Z,75.42
2018-11-26T15:08:36.116Z,74.76
2018-11-26T15:11:04.472Z,74.91
2018-11-26T15:13:32.623Z,75.53
2018-11-26T15:16:02.072Z,74.16
2018-11-26T15:18:30.510Z,74.34
2018-11-26T15:21:00.484Z,75.34
2018-11-26T15:23:30.624Z,75.85
2018-11-26T15:25:58.909Z,76.12
2018-11-26T15:28:30.197Z,76.14
2018-11-26T15:31:05.242Z,75.82
2018-11-26T15:33:33.615Z,76.54
2018-11-26T15:36:02.660Z,76.18
2018-11-26T15:38:31.243Z,74.92
2018-11-26T15:40:59.553Z,74.91
2018-11-26T15:43:27.559Z,74.78
2018-11-26T15:45:55.522Z,74.55
2018-11-26T15:48:23.583Z,75.39
2018-11-26T15:50:51.693Z,75.61
2018-11-26T15:53:20.039Z,75.05
2018-11-26T15:55:48.323Z,74.12
2018-11-26T15:58:23.768Z,73.42
2018-11-26T16:00:51.556Z,72.93
2018-11-26T16:03:19.537Z,73.54
2018-11-26T16:05:47.560Z,73.41
2018-11-26T16:08:16.296Z,71.56
2018-11-26T16:10:44.911Z,73.88
2018-11-26T16:13:14.758Z,73.21
2018-11-26T16:15:43.916Z,73.59
2018-11-26T16:18:18.676Z,73.97
2018-11-26T16:20:47.389Z,73.01
2018-11-26T16:23:15.456Z,73.77
2018-11-26T16:25:44.750Z,74.17
2018-11-26T16:28:17.209Z,73.99
2018-11-26T16:30:45.371Z,74.33
2018-11-26T16:33:13.463Z,74.87
2018-11-26T16:35:42.716Z,73.92
2018-11-26T16:38:11.176Z,73.93
2018-11-26T16:40:39.155Z,72.87
2018-11-26T16:43:08.699Z,73.91
2018-11-26T16:45:36.858Z,74.10
2018-11-26T16:48:05.152Z,74.91
2018-11-26T16:50:34.307Z,74.58
2018-11-26T16:53:02.307Z,75.77
2018-11-26T16:55:30.547Z,75.28
2018-11-26T16:57:58.629Z,76.16
2018-11-26T17:00:28.774Z,74.34
2018-11-26T17:03:00.660Z,74.00
2018-11-26T17:05:33.703Z,73.70
2018-11-26T17:08:01.821Z,73.48
2018-11-26T17:10:29.884Z,74.47
2018-11-26T17:12:58.163Z,75.13
2018-11-26T17:15:26.887Z,75.88
2018-11-26T17:17:56.267Z,75.27
2018-11-26T17:20:24.418Z,75.54
2018-11-26T17:22:52.551Z,76.03
2018-11-26T17:25:20.756Z,76.71
2018-11-26T17:27:49.600Z,77.57
2018-11-26T17:30:25.814Z,76.98
2018-11-26T17:32:54.990Z,76.39
2018-11-26T17:35:22.946Z,75.31
2018-11-26T17:37:51.082Z,73.40
2018-11-26T17:40:20.356Z,72.78
2018-11-26T17:42:48.463Z,72.30
2018-11-26T17:45:17.259Z,71.70
2018-11-26T17:47:47.316Z,72.90
2018-11-26T17:50:19.541Z,74.43
2018-11-26T17:52:47.614Z,76.61
2018-11-26T17:55:15.671Z,77.64
2018-11-26T17:57:43.771Z,78.57
2018-11-26T18:00:15.092Z,77.90
2018-11-26T18:02:44.011Z,77.93
2018-11-26T18:05:15.607Z,78.13
2018-11-26T18:07:45.799Z,76.80
2018-11-26T18:10:14.979Z,77.67
2018-11-26T18:12:44.599Z,79.20
2018-11-26T18:15:14.018Z,78.22
2018-11-26T18:17:42.676Z,78.72
2018-11-26T18:20:13.575Z,79.06
2018-11-26T18:22:43.015Z,79.46
2018-11-26T18:25:11.830Z,79.51
2018-11-26T18:27:44.648Z,79.49
2018-11-26T18:30:15.197Z,79.75
2018-11-26T18:32:43.205Z,76.08
2018-11-26T18:35:11.386Z,73.13
2018-11-26T18:37:39.541Z,71.00
2018-11-26T18:40:12.976Z,70.07
2018-11-26T18:42:40.981Z,69.38
2018-11-26T18:45:11.301Z,68.24
2018-11-26T18:47:39.256Z,66.39
2018-11-26T18:50:11.826Z,69.71
2018-11-26T18:52:46.695Z,74.27
2018-11-26T18:55:24.005Z,77.74
2018-11-26T18:57:52.185Z,79.96
2018-11-26T19:00:27.329Z,82.05
2018-11-26T19:02:56.115Z,83.78
2018-11-26T19:05:24.072Z,83.88
2018-11-26T19:07:52.204Z,84.19
2018-11-26T19:10:22.147Z,84.08
2018-11-26T19:12:52.402Z,83.87
2018-11-26T19:15:23.242Z,84.57
2018-11-26T19:17:52.606Z,84.52
2018-11-26T19:20:24.041Z,83.97
2018-11-26T19:25:30.554Z,83.82
2018-11-26T19:27:59.270Z,83.87
2018-11-26T19:30:27.612Z,83.66
2018-11-26T19:32:55.665Z,83.75
2018-11-26T19:35:23.624Z,84.24
2018-11-26T19:37:51.579Z,84.52
2018-11-26T19:40:20.352Z,84.41
2018-11-26T19:42:48.394Z,84.29
2018-11-26T19:45:17.647Z,82.07
2018-11-26T19:47:45.885Z,82.25
2018-11-26T19:50:14.971Z,81.55
2018-11-26T19:52:43.768Z,82.02
2018-11-26T19:55:21.004Z,80.64
2018-11-26T19:57:49.343Z,80.50
2018-11-26T20:00:21.775Z,81.17
2018-11-26T20:02:52.370Z,81.93
2018-11-26T20:05:34.311Z,82.22
2018-11-26T20:08:02.247Z,82.13
2018-11-26T20:10:30.160Z,81.67
2018-11-26T20:12:58.116Z,81.44
2018-11-26T20:15:26.096Z,81.37
2018-11-26T20:17:58.915Z,80.34
2018-11-26T20:20:22.237Z,79.95
2018-11-26T20:22:50.143Z,80.15
2018-11-26T20:25:18.122Z,80.68
2018-11-26T20:27:46.752Z,81.22
2018-11-26T20:30:15.412Z,81.21
2018-11-26T20:32:44.991Z,81.87
2018-11-26T20:35:13.631Z,82.19
2018-11-26T20:37:42.480Z,81.79
2018-11-26T20:40:13.926Z,81.44
2018-11-26T20:42:46.571Z,80.80
2018-11-26T20:45:15.343Z,80.95
2018-11-26T20:47:43.538Z,79.73
2018-11-26T20:50:15.553Z,79.62
2018-11-26T20:52:43.501Z,79.55
2018-11-26T20:55:13.986Z,79.76
2018-11-26T20:57:42.203Z,79.96
2018-11-26T21:00:16.833Z,80.29
2018-11-26T21:02:45.569Z,80.07
2018-11-26T21:05:14.444Z,79.01
2018-11-26T21:07:42.416Z,78.38
2018-11-26T21:10:12.459Z,78.63
2018-11-26T21:12:41.375Z,79.24
2018-11-26T21:15:11.135Z,79.83
2018-11-26T21:17:39.124Z,80.66
2018-11-26T21:20:11.209Z,80.41
2018-11-26T21:22:40.219Z,80.26
2018-11-26T21:25:10.505Z,81.67
2018-11-26T21:27:39.537Z,82.49
2018-11-26T21:30:12.208Z,80.59
2018-11-26T21:32:40.308Z,80.55
2018-11-26T21:35:10.517Z,81.50
2018-11-26T21:37:38.979Z,81.35
2018-11-26T21:40:09.152Z,81.89
2018-11-26T21:42:37.100Z,82.10
2018-11-26T21:45:10.926Z,82.74
2018-11-26T21:47:38.832Z,83.28
2018-11-26T21:50:10.033Z,83.21
2018-11-26T21:52:38.552Z,83.45
2018-11-26T21:55:09.956Z,83.64
2018-11-26T21:57:38.380Z,83.57
2018-11-26T22:00:28.852Z,83.78
2018-11-26T22:02:57.220Z,83.68
2018-11-26T22:05:25.203Z,85.42
2018-11-26T22:07:53.216Z,86.58
2018-11-26T22:10:23.219Z,84.92
2018-11-26T22:12:53.189Z,83.10
2018-11-26T22:15:21.136Z,83.94
2018-11-26T22:17:49.229Z,85.06
2018-11-26T22:20:27.089Z,86.05
2018-11-26T22:22:55.297Z,86.11
2018-11-26T22:25:23.324Z,86.21
2018-11-26T22:27:52.139Z,87.02
2018-11-26T22:30:29.432Z,88.42
2018-11-26T22:32:57.475Z,88.83
2018-11-26T22:35:25.386Z,89.14
2018-11-26T22:37:53.375Z,87.50
2018-11-26T22:40:23.404Z,86.52
2018-11-26T22:42:51.518Z,87.10
2018-11-26T22:45:24.276Z,88.22
2018-11-26T22:47:59.264Z,89.23
2018-11-26T22:50:27.175Z,89.82
2018-11-26T22:52:55.063Z,90.83
2018-11-26T22:55:23.124Z,92.33
2018-11-26T22:57:51.003Z,92.52
2018-11-26T23:00:26.213Z,93.39
2018-11-26T23:02:55.364Z,93.91
2018-11-26T23:05:23.387Z,94.11
2018-11-26T23:07:51.248Z,93.24
2018-11-26T23:10:19.282Z,91.63
2018-11-26T23:12:47.431Z,88.33
2018-11-26T23:15:15.866Z,86.93
2018-11-26T23:17:44.331Z,83.91
2018-11-26T23:20:14.271Z,79.97
2018-11-26T23:22:42.164Z,78.87
2018-11-26T23:25:14.683Z,79.26
2018-11-26T23:27:42.761Z,78.69
2018-11-26T23:30:16.734Z,80.41
2018-11-26T23:32:45.836Z,81.89
2018-11-26T23:35:14.661Z,82.88
2018-11-26T23:37:42.685Z,84.94
2018-11-26T23:40:11.731Z,86.04
2018-11-26T23:42:39.750Z,87.54
2018-11-26T23:45:10.915Z,88.96
2018-11-26T23:47:38.965Z,90.68
2018-11-26T23:50:08.507Z,91.96
2018-11-26T23:52:37.000Z,93.43
2018-11-26T23:55:06.039Z,92.54
2018-11-26T23:57:33.998Z,91.13
